Time;durP1;ratioP1;P1;durP2;ratioP2;P2;SDS_P1;SDS_P2;PMS_P1;PMS_P2;Temp;Humidity;BMP_temperature;BMP_pressure;BME280_temperature;BME280_humidity;BME280_pressure;Samples;Min_cycle;Max_cycle;Signal;HPM_P1;HPM_P2
2022/08/26 00:02:09;;;;;;;20.20;7.88;;;;;;;;;;5052507;28;20025;-61
2022/08/26 00:04:35;;;;;;;16.00;8.35;;;;;;;;;;5052684;28;20029;-61
2022/08/26 00:07:01;;;;;;;17.30;7.38;;;;;;;;;;5050865;28;20029;-61
2022/08/26 00:09:27;;;;;;;19.55;8.85;;;;;;;;;;5053064;28;20095;-61
2022/08/26 00:11:53;;;;;;;17.80;7.40;;;;;;;;;;5053212;28;20506;-61
2022/08/26 00:14:19;;;;;;;13.68;7.10;;;;;;;;;;5050959;28;20679;-61
2022/08/26 00:16:45;;;;;;;16.95;7.93;;;;;;;;;;5052932;28;20067;-61
2022/08/26 00:19:11;;;;;;;19.13;7.70;;;;;;;;;;5053109;28;20053;-61
2022/08/26 00:21:37;;;;;;;16.60;8.40;;;;;;;;;;5050414;28;20051;-61
2022/08/26 00:24:03;;;;;;;19.20;7.70;;;;;;;;;;5052850;28;20041;-61
2022/08/26 00:26:29;;;;;;;23.52;8.95;;;;;;;;;;5046686;28;20055;-61
2022/08/26 00:28:55;;;;;;;16.27;7.18;;;;;;;;;;5049657;28;20037;-61
2022/08/26 00:31:21;;;;;;;20.45;7.93;;;;;;;;;;5049322;28;20029;-60
2022/08/26 00:33:47;;;;;;;14.45;7.18;;;;;;;;;;5043305;28;20065;-60
2022/08/26 00:36:13;;;;;;;21.40;7.88;;;;;;;;;;5052034;28;20680;-60
2022/08/26 00:38:39;;;;;;;19.95;7.35;;;;;;;;;;5051766;28;20025;-61
2022/08/26 00:41:05;;;;;;;13.32;7.03;;;;;;;;;;5051408;28;20033;-61
2022/08/26 00:43:32;;;;;;;12.90;7.57;;;;;;;;;;5050873;28;20404;-61
2022/08/26 00:45:58;;;;;;;18.35;7.22;;;;;;;;;;5048630;28;20115;-60
2022/08/26 00:48:26;;;;;;;17.05;8.50;;;;;;;;;;5050890;28;20086;-61
2022/08/26 00:50:55;;;;;;;22.05;7.72;;;;;;;;;;5051881;28;20028;-61
2022/08/26 00:53:23;;;;;;;19.02;7.65;;;;;;;;;;5051953;28;20531;-61
2022/08/26 00:55:54;;;;;;;14.30;7.10;;;;;;;;;;5049052;28;20017;-61
2022/08/26 00:58:22;;;;;;;17.70;7.57;;;;;;;;;;5047249;28;20575;-61
2022/08/26 01:00:48;;;;;;;17.90;7.40;;;;;;;;;;5050465;28;20037;-60
2022/08/26 01:03:16;;;;;;;21.27;7.60;;;;;;;;;;5046952;28;20511;-60
2022/08/26 01:05:42;;;;;;;16.70;7.90;;;;;;;;;;5048902;28;20028;-61
2022/08/26 01:08:08;;;;;;;18.38;7.80;;;;;;;;;;5050229;28;20036;-60
2022/08/26 01:10:34;;;;;;;19.90;7.78;;;;;;;;;;5051486;28;20507;-61
2022/08/26 01:13:08;;;;;;;21.80;8.48;;;;;;;;;;5042834;28;20437;-61
2022/08/26 01:15:42;;;;;;;20.48;7.90;;;;;;;;;;5050843;28;20584;-60
2022/08/26 01:18:08;;;;;;;16.23;7.30;;;;;;;;;;5050497;28;20111;-61
2022/08/26 01:20:42;;;;;;;14.27;7.75;;;;;;;;;;5049676;28;20033;-60
2022/08/26 01:23:09;;;;;;;16.17;7.22;;;;;;;;;;5048445;28;20203;-61
2022/08/26 01:25:38;;;;;;;15.35;6.70;;;;;;;;;;5051041;28;20485;-61
2022/08/26 01:28:05;;;;;;;18.70;7.50;;;;;;;;;;5042247;28;20040;-61
2022/08/26 01:30:32;;;;;;;19.88;7.80;;;;;;;;;;5048409;28;20025;-61
2022/08/26 01:33:00;;;;;;;20.80;8.45;;;;;;;;;;5049377;28;20032;-60
2022/08/26 01:35:28;;;;;;;19.88;7.93;;;;;;;;;;5050240;28;20017;-61
2022/08/26 01:37:55;;;;;;;22.05;8.02;;;;;;;;;;5041841;28;20524;-60
2022/08/26 01:40:24;;;;;;;16.65;8.40;;;;;;;;;;5050402;28;20055;-60
2022/08/26 01:42:51;;;;;;;19.10;8.65;;;;;;;;;;5050267;28;20071;-60
2022/08/26 01:45:19;;;;;;;19.95;8.32;;;;;;;;;;5049047;28;20583;-60
2022/08/26 01:47:46;;;;;;;23.10;9.05;;;;;;;;;;5049411;28;20025;-60
2022/08/26 01:50:22;;;;;;;17.48;8.48;;;;;;;;;;5048501;28;20043;-60
2022/08/26 01:52:48;;;;;;;17.17;8.43;;;;;;;;;;5047443;28;20116;-60
2022/08/26 01:55:16;;;;;;;13.73;8.25;;;;;;;;;;5050783;28;20035;-60
2022/08/26 01:57:43;;;;;;;14.35;7.82;;;;;;;;;;5048776;28;20029;-60
2022/08/26 02:00:14;;;;;;;17.02;7.88;;;;;;;;;;5048197;28;20036;-60
2022/08/26 02:02:50;;;;;;;21.55;9.38;;;;;;;;;;5046142;28;20029;-60
2022/08/26 02:05:18;;;;;;;22.50;8.07;;;;;;;;;;5049010;28;20035;-60
2022/08/26 02:07:45;;;;;;;23.88;8.88;;;;;;;;;;5048596;28;20036;-60
2022/08/26 02:10:12;;;;;;;16.10;8.63;;;;;;;;;;5048300;28;20095;-60
2022/08/26 02:12:39;;;;;;;16.50;9.48;;;;;;;;;;5050771;28;20053;-60
2022/08/26 02:15:07;;;;;;;19.02;9.35;;;;;;;;;;5049687;28;20031;-60
2022/08/26 02:17:36;;;;;;;12.10;8.05;;;;;;;;;;5047400;28;20108;-60
2022/08/26 02:20:03;;;;;;;21.05;9.70;;;;;;;;;;5045525;28;20044;-60
2022/08/26 02:22:30;;;;;;;19.92;9.20;;;;;;;;;;5049770;28;20118;-60
2022/08/26 02:24:58;;;;;;;19.83;8.82;;;;;;;;;;5049547;28;20088;-60
2022/08/26 02:27:27;;;;;;;20.55;9.98;;;;;;;;;;5041540;28;20434;-60
2022/08/26 02:29:55;;;;;;;17.40;8.90;;;;;;;;;;5044559;28;20135;-60
2022/08/26 02:32:22;;;;;;;24.45;9.43;;;;;;;;;;5049755;28;20500;-60
2022/08/26 02:34:48;;;;;;;15.57;8.52;;;;;;;;;;5049994;28;20025;-60
2022/08/26 02:37:14;;;;;;;19.25;8.43;;;;;;;;;;5048962;28;20136;-60
2022/08/26 02:39:41;;;;;;;18.27;8.52;;;;;;;;;;5046854;28;20065;-60
2022/08/26 02:42:07;;;;;;;16.85;7.90;;;;;;;;;;5048816;28;20112;-60
2022/08/26 02:44:33;;;;;;;19.08;8.65;;;;;;;;;;5045736;28;20032;-60
2022/08/26 02:46:59;;;;;;;15.50;9.45;;;;;;;;;;5048383;28;20056;-60
2022/08/26 02:49:25;;;;;;;12.52;8.15;;;;;;;;;;5047109;28;20025;-60
2022/08/26 02:51:51;;;;;;;12.00;7.55;;;;;;;;;;5050228;28;20204;-60
2022/08/26 02:54:18;;;;;;;16.20;8.43;;;;;;;;;;5049280;28;20032;-60
2022/08/26 02:56:44;;;;;;;18.63;8.60;;;;;;;;;;5048359;28;20553;-60
2022/08/26 02:59:14;;;;;;;16.42;8.35;;;;;;;;;;5047784;28;20108;-60
2022/08/26 03:01:40;;;;;;;14.60;8.55;;;;;;;;;;5045909;28;20065;-60
2022/08/26 03:04:08;;;;;;;16.17;7.78;;;;;;;;;;5049491;28;20025;-60
2022/08/26 03:06:34;;;;;;;17.10;7.55;;;;;;;;;;5049131;28;20391;-60
2022/08/26 03:09:00;;;;;;;17.80;8.38;;;;;;;;;;5045742;28;20052;-60
2022/08/26 03:11:26;;;;;;;12.18;7.78;;;;;;;;;;5048741;28;20037;-60
2022/08/26 03:13:52;;;;;;;17.92;8.32;;;;;;;;;;5049065;28;20434;-60
2022/08/26 03:16:19;;;;;;;15.60;8.50;;;;;;;;;;5048126;28;20025;-60
2022/08/26 03:18:45;;;;;;;17.52;8.25;;;;;;;;;;5045975;28;20071;-60
2022/08/26 03:21:15;;;;;;;15.93;8.85;;;;;;;;;;5049995;28;20041;-60
2022/08/26 03:23:42;;;;;;;12.25;7.88;;;;;;;;;;5048145;28;20033;-60
2022/08/26 03:26:09;;;;;;;12.90;8.25;;;;;;;;;;5049095;28;20086;-60
2022/08/26 03:30:38;;;;;;;16.75;9.10;;;;;;;;;;5051126;28;20414;-60
2022/08/26 03:31:22;;;;;;;13.98;9.05;;;;;;;;;;5044651;28;20438;-60
2022/08/26 03:33:47;;;;;;;15.95;8.43;;;;;;;;;;5048593;28;20029;-60
2022/08/26 03:36:14;;;;;;;21.63;10.38;;;;;;;;;;5052062;28;20040;-60
2022/08/26 03:38:40;;;;;;;13.77;8.73;;;;;;;;;;5051444;28;20653;-60
2022/08/26 03:41:07;;;;;;;20.25;9.45;;;;;;;;;;5052389;28;20113;-60
2022/08/26 03:43:33;;;;;;;16.83;8.57;;;;;;;;;;5051050;28;20036;-60
2022/08/26 03:46:03;;;;;;;17.23;9.23;;;;;;;;;;5049909;28;20023;-61
2022/08/26 03:48:29;;;;;;;18.00;8.70;;;;;;;;;;5051667;28;20504;-60
2022/08/26 03:50:55;;;;;;;20.20;9.55;;;;;;;;;;5051477;28;20075;-60
2022/08/26 03:53:22;;;;;;;16.02;8.55;;;;;;;;;;5050814;28;20029;-60
2022/08/26 03:55:48;;;;;;;13.05;8.68;;;;;;;;;;5052727;28;20036;-60
2022/08/26 03:58:14;;;;;;;17.05;8.90;;;;;;;;;;5051116;28;20032;-60
2022/08/26 04:00:40;;;;;;;20.05;9.07;;;;;;;;;;5050407;28;20096;-60
2022/08/26 04:03:06;;;;;;;21.25;10.07;;;;;;;;;;5050349;28;20029;-60
2022/08/26 04:05:32;;;;;;;17.40;9.02;;;;;;;;;;5051741;28;20112;-60
2022/08/26 04:07:58;;;;;;;19.23;9.77;;;;;;;;;;5044691;28;20570;-60
2022/08/26 04:10:26;;;;;;;14.13;8.63;;;;;;;;;;5051877;28;20671;-60
2022/08/26 04:12:52;;;;;;;14.73;9.77;;;;;;;;;;5053277;28;20031;-60
2022/08/26 04:15:20;;;;;;;21.35;9.65;;;;;;;;;;5053143;28;20031;-60
2022/08/26 04:17:46;;;;;;;19.98;9.80;;;;;;;;;;5051697;28;20041;-60
2022/08/26 04:20:12;;;;;;;20.40;9.68;;;;;;;;;;5050197;28;20040;-60
2022/08/26 04:22:39;;;;;;;17.77;9.23;;;;;;;;;;5051500;28;20056;-60
2022/08/26 04:25:05;;;;;;;19.27;10.52;;;;;;;;;;5052229;28;20031;-60
2022/08/26 04:27:32;;;;;;;18.73;9.48;;;;;;;;;;5049723;28;20039;-60
2022/08/26 04:29:58;;;;;;;21.77;9.30;;;;;;;;;;5050547;28;20060;-60
2022/08/26 04:32:24;;;;;;;23.50;10.23;;;;;;;;;;5048854;28;20056;-60
2022/08/26 04:34:50;;;;;;;18.85;8.82;;;;;;;;;;5051676;28;20028;-60
2022/08/26 04:37:16;;;;;;;24.30;10.13;;;;;;;;;;5043321;28;20434;-60
2022/08/26 04:39:42;;;;;;;14.63;9.55;;;;;;;;;;5049001;28;20052;-60
2022/08/26 04:42:08;;;;;;;19.80;10.35;;;;;;;;;;5049284;28;20040;-60
2022/08/26 04:44:35;;;;;;;17.77;10.05;;;;;;;;;;5051670;28;20120;-60
2022/08/26 04:47:01;;;;;;;19.58;9.68;;;;;;;;;;5050359;28;20025;-60
2022/08/26 04:49:27;;;;;;;24.80;10.23;;;;;;;;;;5050328;28;20024;-60
2022/08/26 04:51:53;;;;;;;20.67;10.25;;;;;;;;;;5051273;28;20028;-61
2022/08/26 04:54:19;;;;;;;21.73;9.63;;;;;;;;;;5047160;28;20485;-60
2022/08/26 04:56:48;;;;;;;18.10;10.18;;;;;;;;;;5052953;28;20066;-60
2022/08/26 04:59:16;;;;;;;17.48;9.45;;;;;;;;;;5048993;28;20111;-60
2022/08/26 05:01:42;;;;;;;23.10;10.20;;;;;;;;;;5050753;28;20044;-60
2022/08/26 05:04:08;;;;;;;20.35;9.45;;;;;;;;;;5050019;28;20033;-60
2022/08/26 05:06:34;;;;;;;15.02;9.55;;;;;;;;;;5052083;28;20060;-60
2022/08/26 05:09:01;;;;;;;14.13;8.15;;;;;;;;;;5048271;28;20041;-60
2022/08/26 05:11:27;;;;;;;23.27;9.52;;;;;;;;;;5043649;28;20120;-60
2022/08/26 05:13:52;;;;;;;15.00;8.70;;;;;;;;;;5048720;28;20109;-60
2022/08/26 05:16:18;;;;;;;14.15;9.65;;;;;;;;;;5049477;28;20490;-60
2022/08/26 05:18:45;;;;;;;15.20;8.63;;;;;;;;;;5050299;28;20024;-60
2022/08/26 05:21:37;;;;;;;14.73;8.65;;;;;;;;;;5050570;28;20140;-60
2022/08/26 05:24:04;;;;;;;23.02;11.00;;;;;;;;;;5048790;28;20076;-60
2022/08/26 05:26:30;;;;;;;15.85;9.35;;;;;;;;;;5051151;28;20025;-60
2022/08/26 05:28:56;;;;;;;21.58;10.40;;;;;;;;;;5044050;28;20368;-60
2022/08/26 05:31:24;;;;;;;17.98;9.63;;;;;;;;;;5050713;28;20033;-60
2022/08/26 05:33:50;;;;;;;27.15;11.45;;;;;;;;;;5050875;28;20040;-60
2022/08/26 05:36:18;;;;;;;17.98;10.35;;;;;;;;;;5050878;28;20033;-60
2022/08/26 05:38:44;;;;;;;20.27;9.93;;;;;;;;;;5048465;28;20035;-60
2022/08/26 05:41:17;;;;;;;16.63;10.05;;;;;;;;;;5048694;28;20086;-60
2022/08/26 05:43:43;;;;;;;20.92;9.25;;;;;;;;;;5049464;28;20534;-61
2022/08/26 05:46:09;;;;;;;16.95;9.90;;;;;;;;;;5051414;28;20506;-61
2022/08/26 05:48:35;;;;;;;16.45;8.75;;;;;;;;;;5051721;28;20383;-60
2022/08/26 05:51:03;;;;;;;20.40;10.30;;;;;;;;;;5050631;28;20017;-60
2022/08/26 05:53:29;;;;;;;25.73;9.35;;;;;;;;;;5051902;28;20449;-61
2022/08/26 05:55:55;;;;;;;13.95;9.45;;;;;;;;;;5048456;28;20029;-59
2022/08/26 05:58:22;;;;;;;19.55;8.65;;;;;;;;;;5051711;28;20095;-61
2022/08/26 06:00:57;;;;;;;26.60;10.32;;;;;;;;;;5049359;28;20033;-60
2022/08/26 06:03:23;;;;;;;26.30;11.77;;;;;;;;;;5051946;28;20037;-60
2022/08/26 06:05:49;;;;;;;22.58;10.88;;;;;;;;;;5049158;28;20034;-61
2022/08/26 06:08:17;;;;;;;18.88;10.45;;;;;;;;;;5048324;28;20072;-60
2022/08/26 06:10:44;;;;;;;18.98;10.35;;;;;;;;;;5049551;28;20384;-60
2022/08/26 06:13:10;;;;;;;20.42;10.57;;;;;;;;;;5048143;28;20765;-60
2022/08/26 06:15:40;;;;;;;22.48;10.52;;;;;;;;;;5049868;28;20087;-61
2022/08/26 06:18:06;;;;;;;27.60;11.77;;;;;;;;;;5049104;28;20032;-60
2022/08/26 06:20:32;;;;;;;22.10;10.55;;;;;;;;;;5050618;28;20055;-60
2022/08/26 06:25:43;;;;;;;26.98;11.02;;;;;;;;;;5049044;28;20157;-60
2022/08/26 06:28:09;;;;;;;22.67;9.85;;;;;;;;;;5043313;28;20033;-60
2022/08/26 06:30:39;;;;;;;22.60;10.05;;;;;;;;;;5047600;28;20025;-60
2022/08/26 06:33:05;;;;;;;22.27;9.60;;;;;;;;;;5043368;28;20044;-60
2022/08/26 06:35:35;;;;;;;22.48;9.13;;;;;;;;;;5045321;28;20022;-59
2022/08/26 06:38:01;;;;;;;21.77;10.00;;;;;;;;;;5046673;28;20504;-60
2022/08/26 06:40:28;;;;;;;15.68;8.35;;;;;;;;;;5046698;28;20034;-60
2022/08/26 06:42:53;;;;;;;21.08;9.38;;;;;;;;;;5049724;28;20032;-60
2022/08/26 06:45:20;;;;;;;21.25;9.35;;;;;;;;;;5049848;28;20037;-60
2022/08/26 06:47:46;;;;;;;20.30;9.15;;;;;;;;;;5049249;28;20032;-59
2022/08/26 06:50:12;;;;;;;14.98;7.57;;;;;;;;;;5050361;28;20025;-60
2022/08/26 06:52:41;;;;;;;17.05;8.45;;;;;;;;;;5045427;28;20028;-59
2022/08/26 06:55:07;;;;;;;18.27;8.50;;;;;;;;;;5048399;28;20036;-60
2022/08/26 06:57:35;;;;;;;17.63;8.55;;;;;;;;;;5047603;28;20086;-60
2022/08/26 07:00:03;;;;;;;19.10;7.90;;;;;;;;;;5045860;28;20033;-59
2022/08/26 07:02:29;;;;;;;16.70;8.38;;;;;;;;;;5041820;28;20753;-59
2022/08/26 07:04:55;;;;;;;28.27;9.40;;;;;;;;;;5041937;28;20041;-60
2022/08/26 07:07:21;;;;;;;25.23;8.75;;;;;;;;;;5053519;28;20124;-59
2022/08/26 07:09:47;;;;;;;16.85;8.00;;;;;;;;;;5051755;28;20457;-59
2022/08/26 07:12:13;;;;;;;16.30;7.57;;;;;;;;;;5054001;28;20037;-59
2022/08/26 07:14:39;;;;;;;23.75;7.82;;;;;;;;;;5051358;28;20385;-60
2022/08/26 07:17:06;;;;;;;25.17;8.70;;;;;;;;;;5051702;28;20016;-60
2022/08/26 07:19:32;;;;;;;21.00;7.63;;;;;;;;;;5047562;28;20030;-60
2022/08/26 07:21:58;;;;;;;20.20;7.32;;;;;;;;;;5047848;28;20036;-60
2022/08/26 07:24:24;;;;;;;24.75;7.20;;;;;;;;;;5051634;28;20029;-60
2022/08/26 07:26:50;;;;;;;25.45;7.90;;;;;;;;;;5051030;28;20821;-60
2022/08/26 07:29:17;;;;;;;20.05;7.10;;;;;;;;;;5051688;28;20091;-60
2022/08/26 07:31:44;;;;;;;21.92;6.70;;;;;;;;;;5050095;28;20041;-60
2022/08/26 07:34:10;;;;;;;15.57;7.05;;;;;;;;;;5052569;28;20025;-60
2022/08/26 07:36:36;;;;;;;22.73;6.80;;;;;;;;;;5053206;28;20107;-60
2022/08/26 07:39:02;;;;;;;16.40;6.80;;;;;;;;;;5045824;28;20815;-60
2022/08/26 07:41:28;;;;;;;15.93;5.95;;;;;;;;;;5053220;28;20029;-60
2022/08/26 07:43:54;;;;;;;22.88;6.70;;;;;;;;;;5048337;28;20076;-60
2022/08/26 07:46:20;;;;;;;19.67;6.40;;;;;;;;;;5052161;28;20033;-60
2022/08/26 07:48:47;;;;;;;22.40;6.30;;;;;;;;;;5048437;28;20021;-60
2022/08/26 07:51:14;;;;;;;20.77;6.32;;;;;;;;;;5053454;28;20111;-60
2022/08/26 07:53:40;;;;;;;13.18;5.63;;;;;;;;;;5052851;28;20218;-60
2022/08/26 07:56:06;;;;;;;27.23;6.07;;;;;;;;;;5052787;28;20029;-60
2022/08/26 07:58:32;;;;;;;19.20;5.25;;;;;;;;;;5053450;28;20029;-60
2022/08/26 08:00:58;;;;;;;18.20;5.70;;;;;;;;;;5051489;28;20033;-60
2022/08/26 08:03:24;;;;;;;14.35;5.68;;;;;;;;;;5053278;28;20082;-60
2022/08/26 08:05:50;;;;;;;16.00;5.78;;;;;;;;;;5047987;28;20472;-60
2022/08/26 08:08:16;;;;;;;17.80;5.43;;;;;;;;;;5053789;28;20083;-61
2022/08/26 08:10:43;;;;;;;22.25;5.70;;;;;;;;;;5052299;28;20021;-59
2022/08/26 08:13:09;;;;;;;23.42;5.93;;;;;;;;;;5048903;28;20043;-60
2022/08/26 08:15:36;;;;;;;18.85;4.97;;;;;;;;;;5041006;28;20559;-60
2022/08/26 08:18:02;;;;;;;23.00;5.53;;;;;;;;;;5045170;28;20036;-60
2022/08/26 08:20:28;;;;;;;16.45;4.88;;;;;;;;;;5050964;28;20788;-60
2022/08/26 08:22:54;;;;;;;23.95;5.43;;;;;;;;;;5052464;28;20029;-60
2022/08/26 08:25:20;;;;;;;24.33;5.38;;;;;;;;;;5053160;28;20028;-60
2022/08/26 08:27:49;;;;;;;24.75;5.88;;;;;;;;;;5041807;28;20131;-60
2022/08/26 08:30:18;;;;;;;21.02;5.63;;;;;;;;;;5046738;28;20496;-60
2022/08/26 08:32:44;;;;;;;22.58;5.70;;;;;;;;;;5051805;28;20021;-60
2022/08/26 08:35:11;;;;;;;13.43;4.90;;;;;;;;;;5051780;28;20033;-60
2022/08/26 08:37:37;;;;;;;29.70;5.53;;;;;;;;;;5052306;28;20037;-60
2022/08/26 08:40:03;;;;;;;14.23;4.68;;;;;;;;;;5051363;28;20123;-60
2022/08/26 08:42:38;;;;;;;21.30;5.25;;;;;;;;;;5053136;28;20056;-60
2022/08/26 08:45:09;;;;;;;21.85;4.68;;;;;;;;;;5047061;28;20104;-60
2022/08/26 08:47:35;;;;;;;33.60;5.32;;;;;;;;;;5047612;28;20053;-60
2022/08/26 08:50:24;;;;;;;18.27;4.82;;;;;;;;;;5052580;28;20017;-60
2022/08/26 08:52:54;;;;;;;21.42;4.82;;;;;;;;;;5041780;28;20048;-60
2022/08/26 08:55:21;;;;;;;21.92;5.72;;;;;;;;;;5053095;28;20025;-59
2022/08/26 08:58:01;;;;;;;22.08;4.90;;;;;;;;;;5052725;28;20029;-60
2022/08/26 09:00:32;;;;;;;17.50;4.80;;;;;;;;;;5052492;28;20028;-60
2022/08/26 09:03:05;;;;;;;21.80;4.90;;;;;;;;;;5043471;28;20156;-60
2022/08/26 09:05:38;;;;;;;22.23;4.63;;;;;;;;;;5044039;28;20035;-60
2022/08/26 09:08:05;;;;;;;;;;;;;;;;;;5048405;28;20037;-60
2022/08/26 09:10:33;;;;;;;21.65;5.05;;;;;;;;;;5049225;28;20375;-60
2022/08/26 09:13:00;;;;;;;20.98;4.78;;;;;;;;;;5046321;28;20039;-60
2022/08/26 09:15:28;;;;;;;19.70;5.13;;;;;;;;;;5050268;28;20406;-60
2022/08/26 09:18:14;;;;;;;15.82;4.22;;;;;;;;;;5047553;28;20086;-59
2022/08/26 09:20:49;;;;;;;21.30;5.35;;;;;;;;;;5025255;28;20067;-60
2022/08/26 09:23:15;;;;;;;16.50;4.28;;;;;;;;;;5049505;28;20033;-60
2022/08/26 09:25:52;;;;;;;29.30;5.18;;;;;;;;;;5043834;28;20158;-60
2022/08/26 09:28:20;;;;;;;23.73;4.85;;;;;;;;;;5039910;28;20120;-60
2022/08/26 09:30:57;;;;;;;24.02;5.57;;;;;;;;;;5047350;28;20024;-60
2022/08/26 09:33:26;;;;;;;17.13;4.80;;;;;;;;;;5051422;28;20028;-60
2022/08/26 09:36:10;;;;;;;22.88;5.38;;;;;;;;;;5049794;28;20047;-60
2022/08/26 09:38:36;;;;;;;13.00;4.03;;;;;;;;;;5050529;28;20227;-60
2022/08/26 09:41:07;;;;;;;28.75;4.78;;;;;;;;;;5051851;28;20035;-60
2022/08/26 09:43:33;;;;;;;20.17;4.40;;;;;;;;;;5042007;28;20033;-60
2022/08/26 09:46:20;;;;;;;16.20;4.82;;;;;;;;;;5040225;28;20425;-60
2022/08/26 09:48:45;;;;;;;18.15;5.13;;;;;;;;;;5044458;28;20131;-60
2022/08/26 09:51:25;;;;;;;21.58;4.78;;;;;;;;;;5037318;28;20021;-61
2022/08/26 09:53:59;;;;;;;18.27;4.03;;;;;;;;;;5036574;28;20025;-60
2022/08/26 09:56:31;;;;;;;20.20;4.53;;;;;;;;;;5037768;28;20369;-60
2022/08/26 09:58:57;;;;;;;21.83;4.67;;;;;;;;;;5036208;28;20112;-61
2022/08/26 10:01:29;;;;;;;23.63;5.45;;;;;;;;;;5047813;28;20035;-60
2022/08/26 10:04:13;;;;;;;22.88;4.70;;;;;;;;;;5050839;28;20419;-61
2022/08/26 10:06:53;;;;;;;22.77;4.57;;;;;;;;;;5045673;28;20032;-61
2022/08/26 10:09:19;;;;;;;27.00;5.28;;;;;;;;;;5040934;28;20041;-60
2022/08/26 10:11:47;;;;;;;18.90;4.70;;;;;;;;;;5037301;28;20025;-61
2022/08/26 10:14:20;;;;;;;20.08;4.78;;;;;;;;;;5043141;28;20040;-61
2022/08/26 10:16:48;;;;;;;22.50;4.63;;;;;;;;;;5041598;28;20017;-61
2022/08/26 10:19:19;;;;;;;21.05;4.75;;;;;;;;;;5037610;28;20025;-61
2022/08/26 10:21:50;;;;;;;26.52;5.28;;;;;;;;;;5039267;28;20094;-60
2022/08/26 10:24:21;;;;;;;29.35;5.20;;;;;;;;;;5050617;28;20068;-61
2022/08/26 10:27:06;;;;;;;26.80;4.53;;;;;;;;;;5044718;28;20025;-61
2022/08/26 10:29:39;;;;;;;21.40;5.05;;;;;;;;;;5039321;28;20041;-61
2022/08/26 10:32:11;;;;;;;22.63;5.47;;;;;;;;;;5047730;28;20036;-61
2022/08/26 10:34:37;;;;;;;24.05;5.25;;;;;;;;;;5046814;28;20427;-61
2022/08/26 10:37:15;;;;;;;24.65;5.72;;;;;;;;;;5051966;28;20029;-60
2022/08/26 10:39:52;;;;;;;22.85;5.18;;;;;;;;;;5053274;28;20021;-59
2022/08/26 10:42:21;;;;;;;21.70;4.72;;;;;;;;;;5051442;28;20134;-61
2022/08/26 10:44:49;;;;;;;21.23;5.30;;;;;;;;;;5049538;28;20518;-60
2022/08/26 10:47:24;;;;;;;22.63;5.00;;;;;;;;;;5042907;28;20059;-60
2022/08/26 10:49:52;;;;;;;28.75;5.88;;;;;;;;;;5048650;28;20112;-61
2022/08/26 10:52:21;;;;;;;22.40;5.60;;;;;;;;;;5041761;28;20021;-61
2022/08/26 10:55:11;;;;;;;32.03;5.55;;;;;;;;;;5051329;28;20029;-60
2022/08/26 10:57:43;;;;;;;20.40;5.25;;;;;;;;;;5050302;28;20021;-62
2022/08/26 11:03:08;;;;;;;16.33;4.30;;;;;;;;;;5051175;28;20039;-61
2022/08/26 11:05:34;;;;;;;18.98;3.55;;;;;;;;;;5048474;28;20033;-61
2022/08/26 11:08:18;;;;;;;16.55;3.38;;;;;;;;;;5053424;28;20029;-61
2022/08/26 11:10:56;;;;;;;14.98;3.90;;;;;;;;;;5053130;28;20524;-61
2022/08/26 11:13:42;;;;;;;12.45;2.85;;;;;;;;;;5049182;28;20029;-60
2022/08/26 11:16:07;;;;;;;9.38;2.75;;;;;;;;;;5049115;28;21394;-61
2022/08/26 11:18:38;;;;;;;12.15;2.78;;;;;;;;;;5049647;28;20040;-60
2022/08/26 11:21:24;;;;;;;9.57;3.22;;;;;;;;;;5054376;28;20028;-60
2022/08/26 11:23:50;;;;;;;10.02;2.65;;;;;;;;;;5043116;28;20433;-60
2022/08/26 11:26:16;;;;;;;14.38;3.00;;;;;;;;;;5050944;28;20052;-61
2022/08/26 11:28:49;;;;;;;13.65;3.03;;;;;;;;;;5051987;28;20041;-61
2022/08/26 11:31:15;;;;;;;;;;;;;;;;;;5048142;28;20021;-61
2022/08/26 11:33:49;;;;;;;15.05;3.17;;;;;;;;;;5048484;28;19952;-60
2022/08/26 11:36:26;;;;;;;10.43;2.88;;;;;;;;;;5048886;28;20025;-60
2022/08/26 11:38:53;;;;;;;8.25;2.80;;;;;;;;;;5052784;28;20484;-60
2022/08/26 11:41:21;;;;;;;9.80;2.58;;;;;;;;;;5051311;28;20035;-60
2022/08/26 11:43:50;;;;;;;12.15;3.20;;;;;;;;;;5053478;28;20093;-60
2022/08/26 11:46:23;;;;;;;8.98;2.35;;;;;;;;;;5054504;28;20350;-60
2022/08/26 11:48:49;;;;;;;7.25;2.63;;;;;;;;;;5051229;28;20107;-61
2022/08/26 11:51:25;;;;;;;9.13;2.97;;;;;;;;;;5053861;28;20021;-60
2022/08/26 11:53:51;;;;;;;8.90;2.70;;;;;;;;;;5053864;28;20037;-60
2022/08/26 11:56:23;;;;;;;7.30;2.85;;;;;;;;;;5051874;28;20379;-60
2022/08/26 11:58:49;;;;;;;9.38;3.30;;;;;;;;;;5053236;28;20033;-60
2022/08/26 12:01:25;;;;;;;17.00;3.92;;;;;;;;;;5053779;28;20025;-60
2022/08/26 12:03:51;;;;;;;7.97;2.80;;;;;;;;;;5053885;28;20040;-60
2022/08/26 12:06:25;;;;;;;11.75;3.53;;;;;;;;;;5052286;28;20060;-61
2022/08/26 12:08:52;;;;;;;6.78;2.95;;;;;;;;;;5053539;28;20048;-61
2022/08/26 12:11:23;;;;;;;12.85;2.92;;;;;;;;;;5048994;28;20448;-61
2022/08/26 12:13:56;;;;;;;12.07;3.80;;;;;;;;;;5042039;28;20021;-62
2022/08/26 12:16:23;;;;;;;13.55;3.85;;;;;;;;;;5047862;28;20031;-63
2022/08/26 12:18:50;;;;;;;24.25;5.15;;;;;;;;;;5049782;28;20060;-64
2022/08/26 12:21:21;;;;;;;15.45;5.00;;;;;;;;;;5053100;28;20616;-63
2022/08/26 12:23:48;;;;;;;14.35;4.32;;;;;;;;;;5047572;28;20036;-58
2022/08/26 12:26:22;;;;;;;12.40;3.97;;;;;;;;;;5050522;28;20067;-58
2022/08/26 12:28:51;;;;;;;14.40;4.60;;;;;;;;;;5040136;28;20025;-58
2022/08/26 12:31:25;;;;;;;6.38;3.75;;;;;;;;;;5045667;28;20063;-58
2022/08/26 12:33:52;;;;;;;17.77;5.22;;;;;;;;;;5053294;28;20523;-58
2022/08/26 12:36:23;;;;;;;12.13;5.15;;;;;;;;;;5049560;28;20033;-57
2022/08/26 12:38:49;;;;;;;15.98;4.93;;;;;;;;;;5053186;28;20025;-58
2022/08/26 12:41:34;;;;;;;12.13;5.03;;;;;;;;;;5048766;28;20079;-58
2022/08/26 12:44:00;;;;;;;5.57;3.90;;;;;;;;;;5048486;28;20025;-57
2022/08/26 12:46:28;;;;;;;9.95;3.45;;;;;;;;;;5052118;28;20488;-57
2022/08/26 12:48:59;;;;;;;7.65;3.50;;;;;;;;;;5053086;28;20029;-57
2022/08/26 12:51:27;;;;;;;10.35;3.75;;;;;;;;;;5052744;28;20116;-57
2022/08/26 12:53:53;;;;;;;7.70;3.33;;;;;;;;;;5050605;28;20068;-57
2022/08/26 12:56:28;;;;;;;11.07;4.10;;;;;;;;;;5051791;28;20111;-59
2022/08/26 12:59:20;;;;;;;7.78;3.92;;;;;;;;;;5051648;28;20029;-57
2022/08/26 13:01:48;;;;;;;8.85;3.47;;;;;;;;;;5048857;28;20040;-58
2022/08/26 13:04:35;;;;;;;7.75;4.35;;;;;;;;;;5052206;28;20086;-58
2022/08/26 13:07:21;;;;;;;9.85;4.57;;;;;;;;;;5051020;28;20395;-58
2022/08/26 13:09:48;;;;;;;22.65;4.10;;;;;;;;;;5051437;28;20053;-58
2022/08/26 13:12:32;;;;;;;7.25;3.85;;;;;;;;;;5050643;28;20029;-58
2022/08/26 13:14:59;;;;;;;8.07;3.50;;;;;;;;;;5052639;28;20532;-58
2022/08/26 13:17:29;;;;;;;10.30;3.78;;;;;;;;;;5049078;28;20052;-58
2022/08/26 13:19:55;;;;;;;10.25;3.53;;;;;;;;;;5050323;28;20494;-60
2022/08/26 13:22:23;;;;;;;8.63;3.80;;;;;;;;;;5051421;28;20033;-60
2022/08/26 13:24:50;;;;;;;7.10;3.42;;;;;;;;;;5051588;28;20064;-60
2022/08/26 13:27:19;;;;;;;6.05;3.03;;;;;;;;;;5052343;28;20068;-59
2022/08/26 13:29:45;;;;;;;6.68;3.80;;;;;;;;;;5049978;28;20044;-60
2022/08/26 13:32:11;;;;;;;9.93;3.53;;;;;;;;;;5052305;28;20033;-57
2022/08/26 13:34:38;;;;;;;8.38;3.45;;;;;;;;;;5049914;28;20445;-60
2022/08/26 13:37:07;;;;;;;6.45;3.65;;;;;;;;;;5048370;28;20031;-59
2022/08/26 13:39:33;;;;;;;7.63;3.35;;;;;;;;;;5043766;28;20028;-59
2022/08/26 13:41:59;;;;;;;9.82;3.90;;;;;;;;;;5049323;28;20021;-62
2022/08/26 13:44:25;;;;;;;10.82;4.20;;;;;;;;;;5050838;28;20032;-62
2022/08/26 13:46:51;;;;;;;8.00;3.58;;;;;;;;;;5049764;28;20396;-62
2022/08/26 13:49:17;;;;;;;10.35;3.92;;;;;;;;;;5048812;28;20450;-63
2022/08/26 13:51:43;;;;;;;9.35;4.10;;;;;;;;;;5049943;28;20037;-64
2022/08/26 13:54:09;;;;;;;16.67;4.85;;;;;;;;;;5048885;28;20029;-63
2022/08/26 13:56:36;;;;;;;12.07;4.85;;;;;;;;;;5046414;28;20032;-63
2022/08/26 13:59:02;;;;;;;15.95;5.75;;;;;;;;;;5043890;28;20480;-64
2022/08/26 14:01:29;;;;;;;9.65;4.85;;;;;;;;;;5048375;28;20056;-64
2022/08/26 14:03:55;;;;;;;17.27;5.63;;;;;;;;;;5038934;28;20021;-65
2022/08/26 14:06:21;;;;;;;17.70;5.75;;;;;;;;;;5041408;28;20025;-64
2022/08/26 14:08:48;;;;;;;15.85;5.82;;;;;;;;;;5044870;28;20132;-64
2022/08/26 14:11:14;;;;;;;16.55;5.72;;;;;;;;;;5044349;28;20029;-64
2022/08/26 14:13:40;;;;;;;13.30;5.93;;;;;;;;;;5044268;28;20080;-64
2022/08/26 14:16:12;;;;;;;16.83;5.68;;;;;;;;;;5044632;28;20021;-64
2022/08/26 14:18:39;;;;;;;16.30;6.13;;;;;;;;;;5041202;28;20033;-64
2022/08/26 14:21:06;;;;;;;16.23;6.45;;;;;;;;;;5051135;28;20930;-64
2022/08/26 14:23:32;;;;;;;15.80;6.55;;;;;;;;;;5049860;28;20021;-64
2022/08/26 14:26:02;;;;;;;14.60;6.65;;;;;;;;;;5050947;28;20045;-64
2022/08/26 14:28:28;;;;;;;20.63;7.32;;;;;;;;;;5051535;28;20025;-65
2022/08/26 14:30:55;;;;;;;24.25;7.75;;;;;;;;;;5044079;28;20447;-63
2022/08/26 14:33:24;;;;;;;16.85;7.63;;;;;;;;;;5051455;28;20017;-64
2022/08/26 14:35:50;;;;;;;17.92;7.72;;;;;;;;;;5051408;28;20031;-65
2022/08/26 14:38:16;;;;;;;14.38;7.35;;;;;;;;;;5049885;28;20104;-64
2022/08/26 14:40:43;;;;;;;15.05;6.35;;;;;;;;;;5050775;28;20104;-63
2022/08/26 14:43:10;;;;;;;15.13;6.72;;;;;;;;;;5048839;28;20515;-63
2022/08/26 14:45:40;;;;;;;10.25;6.03;;;;;;;;;;5049588;28;20025;-63